sensor_id;sensor_type;location;lat;lon;timestamp;P1;durP1;ratioP1;P2;durP2;ratioP2
32236;SDS011;18726;44.732;10.550;2022-08-05T00:33:17;8.98;;;6.13;;
32236;SDS011;18726;44.732;10.550;2022-08-05T00:37:04;6.10;;;5.47;;
32236;SDS011;18726;44.732;10.550;2022-08-05T00:40:09;5.32;;;4.78;;
32236;SDS011;18726;44.732;10.550;2022-08-05T00:43:13;5.75;;;5.00;;
32236;SDS011;18726;44.732;10.550;2022-08-05T00:46:17;5.80;;;5.30;;
32236;SDS011;18726;44.732;10.550;2022-08-05T00:49:22;7.15;;;5.10;;
32236;SDS011;18726;44.732;10.550;2022-08-05T00:52:27;9.27;;;5.97;;
32236;SDS011;18726;44.732;10.550;2022-08-05T00:55:32;7.20;;;6.10;;
32236;SDS011;18726;44.732;10.550;2022-08-05T00:58:41;8.30;;;5.60;;
32236;SDS011;18726;44.732;10.550;2022-08-05T01:05:01;8.82;;;5.65;;
32236;SDS011;18726;44.732;10.550;2022-08-05T01:08:05;4.80;;;4.28;;
32236;SDS011;18726;44.732;10.550;2022-08-05T01:11:20;4.00;;;3.70;;
32236;SDS011;18726;44.732;10.550;2022-08-05T01:14:34;5.38;;;4.88;;
32236;SDS011;18726;44.732;10.550;2022-08-05T01:17:44;4.70;;;4.30;;
32236;SDS011;18726;44.732;10.550;2022-08-05T01:30:17;5.22;;;4.78;;
32236;SDS011;18726;44.732;10.550;2022-08-05T01:33:48;4.53;;;4.13;;
32236;SDS011;18726;44.732;10.550;2022-08-05T02:18:00;8.05;;;6.43;;
32236;SDS011;18726;44.732;10.550;2022-08-05T02:21:21;6.05;;;5.05;;
32236;SDS011;18726;44.732;10.550;2022-08-05T02:24:38;6.13;;;5.63;;
32236;SDS011;18726;44.732;10.550;2022-08-05T02:38:01;8.70;;;5.35;;
32236;SDS011;18726;44.732;10.550;2022-08-05T02:41:07;6.93;;;5.55;;
32236;SDS011;18726;44.732;10.550;2022-08-05T02:44:12;6.57;;;5.97;;
32236;SDS011;18726;44.732;10.550;2022-08-05T02:47:26;8.60;;;6.68;;
32236;SDS011;18726;44.732;10.550;2022-08-05T02:50:33;6.13;;;5.22;;
32236;SDS011;18726;44.732;10.550;2022-08-05T02:53:38;8.80;;;8.00;;
32236;SDS011;18726;44.732;10.550;2022-08-05T02:56:48;10.23;;;9.23;;
32236;SDS011;18726;44.732;10.550;2022-08-05T03:50:44;6.03;;;5.53;;
32236;SDS011;18726;44.732;10.550;2022-08-05T03:57:31;8.75;;;7.95;;
32236;SDS011;18726;44.732;10.550;2022-08-05T04:09:28;8.55;;;7.65;;
32236;SDS011;18726;44.732;10.550;2022-08-05T04:16:47;5.88;;;5.15;;
32236;SDS011;18726;44.732;10.550;2022-08-05T04:19:51;7.00;;;4.80;;
32236;SDS011;18726;44.732;10.550;2022-08-05T04:22:55;7.60;;;6.90;;
32236;SDS011;18726;44.732;10.550;2022-08-05T04:34:54;6.57;;;5.90;;
32236;SDS011;18726;44.732;10.550;2022-08-05T04:43:20;5.70;;;4.50;;
32236;SDS011;18726;44.732;10.550;2022-08-05T04:46:52;7.38;;;6.68;;
32236;SDS011;18726;44.732;10.550;2022-08-05T04:49:59;8.30;;;7.25;;
32236;SDS011;18726;44.732;10.550;2022-08-05T05:03:17;7.88;;;5.40;;
32236;SDS011;18726;44.732;10.550;2022-08-05T05:06:26;8.50;;;5.95;;
32236;SDS011;18726;44.732;10.550;2022-08-05T05:09:30;6.00;;;5.50;;
32236;SDS011;18726;44.732;10.550;2022-08-05T05:12:34;4.03;;;3.63;;
32236;SDS011;18726;44.732;10.550;2022-08-05T05:15:39;6.15;;;3.53;;
32236;SDS011;18726;44.732;10.550;2022-08-05T05:18:45;5.53;;;4.07;;
32236;SDS011;18726;44.732;10.550;2022-08-05T05:21:59;6.40;;;3.85;;
32236;SDS011;18726;44.732;10.550;2022-08-05T05:25:03;5.03;;;4.50;;
32236;SDS011;18726;44.732;10.550;2022-08-05T05:28:09;5.07;;;4.35;;
32236;SDS011;18726;44.732;10.550;2022-08-05T05:31:27;8.18;;;5.00;;
32236;SDS011;18726;44.732;10.550;2022-08-05T05:34:50;9.70;;;4.47;;
32236;SDS011;18726;44.732;10.550;2022-08-05T05:38:03;3.30;;;2.92;;
32236;SDS011;18726;44.732;10.550;2022-08-05T05:41:52;6.47;;;5.13;;
32236;SDS011;18726;44.732;10.550;2022-08-05T05:45:02;6.65;;;3.05;;
32236;SDS011;18726;44.732;10.550;2022-08-05T05:57:00;6.45;;;3.40;;
32236;SDS011;18726;44.732;10.550;2022-08-05T06:00:04;4.47;;;3.13;;
32236;SDS011;18726;44.732;10.550;2022-08-05T06:03:16;4.13;;;2.88;;
32236;SDS011;18726;44.732;10.550;2022-08-05T06:06:20;8.98;;;2.75;;
32236;SDS011;18726;44.732;10.550;2022-08-05T06:09:24;4.05;;;2.42;;
32236;SDS011;18726;44.732;10.550;2022-08-05T06:12:29;2.92;;;2.35;;
32236;SDS011;18726;44.732;10.550;2022-08-05T06:15:33;4.25;;;2.40;;
32236;SDS011;18726;44.732;10.550;2022-08-05T06:18:37;7.70;;;2.50;;
32236;SDS011;18726;44.732;10.550;2022-08-05T06:21:40;7.13;;;2.58;;
32236;SDS011;18726;44.732;10.550;2022-08-05T06:24:44;3.22;;;2.65;;
32236;SDS011;18726;44.732;10.550;2022-08-05T06:27:48;2.88;;;2.60;;
32236;SDS011;18726;44.732;10.550;2022-08-05T06:30:51;2.25;;;2.08;;
32236;SDS011;18726;44.732;10.550;2022-08-05T06:33:55;2.53;;;2.10;;
32236;SDS011;18726;44.732;10.550;2022-08-05T06:37:02;3.15;;;2.10;;
32236;SDS011;18726;44.732;10.550;2022-08-05T06:52:41;2.85;;;2.60;;
32236;SDS011;18726;44.732;10.550;2022-08-05T06:55:44;2.72;;;1.88;;
32236;SDS011;18726;44.732;10.550;2022-08-05T06:58:48;1.90;;;1.80;;
32236;SDS011;18726;44.732;10.550;2022-08-05T07:01:52;3.55;;;2.83;;
32236;SDS011;18726;44.732;10.550;2022-08-05T07:04:56;3.05;;;2.40;;
32236;SDS011;18726;44.732;10.550;2022-08-05T07:07:59;4.40;;;2.58;;
32236;SDS011;18726;44.732;10.550;2022-08-05T07:11:04;4.85;;;2.20;;
32236;SDS011;18726;44.732;10.550;2022-08-05T07:14:15;2.67;;;2.03;;
32236;SDS011;18726;44.732;10.550;2022-08-05T07:17:38;1.90;;;1.80;;
32236;SDS011;18726;44.732;10.550;2022-08-05T07:20:46;3.85;;;2.03;;
32236;SDS011;18726;44.732;10.550;2022-08-05T07:23:53;1.70;;;1.60;;
32236;SDS011;18726;44.732;10.550;2022-08-05T07:27:16;3.20;;;1.65;;
32236;SDS011;18726;44.732;10.550;2022-08-05T07:30:32;10.88;;;2.20;;
32236;SDS011;18726;44.732;10.550;2022-08-05T07:33:57;6.65;;;2.17;;
32236;SDS011;18726;44.732;10.550;2022-08-05T07:41:53;2.30;;;2.00;;
32236;SDS011;18726;44.732;10.550;2022-08-05T07:49:38;2.70;;;2.03;;
32236;SDS011;18726;44.732;10.550;2022-08-05T07:53:31;2.13;;;1.80;;
32236;SDS011;18726;44.732;10.550;2022-08-05T08:20:50;1.92;;;1.50;;
32236;SDS011;18726;44.732;10.550;2022-08-05T08:56:45;3.83;;;2.53;;
32236;SDS011;18726;44.732;10.550;2022-08-05T08:59:59;4.47;;;2.90;;
32236;SDS011;18726;44.732;10.550;2022-08-05T09:03:29;2.70;;;2.50;;
32236;SDS011;18726;44.732;10.550;2022-08-05T09:06:32;3.22;;;3.03;;
32236;SDS011;18726;44.732;10.550;2022-08-05T09:09:36;3.08;;;2.80;;
32236;SDS011;18726;44.732;10.550;2022-08-05T09:13:37;4.73;;;2.83;;
32236;SDS011;18726;44.732;10.550;2022-08-05T09:26:18;4.60;;;2.70;;
32236;SDS011;18726;44.732;10.550;2022-08-05T09:29:39;3.25;;;2.90;;
32236;SDS011;18726;44.732;10.550;2022-08-05T09:37:26;4.13;;;2.95;;
32236;SDS011;18726;44.732;10.550;2022-08-05T09:45:12;5.13;;;2.80;;
32236;SDS011;18726;44.732;10.550;2022-08-05T09:49:01;7.85;;;3.55;;
32236;SDS011;18726;44.732;10.550;2022-08-05T09:52:35;6.97;;;4.00;;
32236;SDS011;18726;44.732;10.550;2022-08-05T09:55:42;4.35;;;3.60;;
32236;SDS011;18726;44.732;10.550;2022-08-05T09:58:56;4.38;;;3.97;;
32236;SDS011;18726;44.732;10.550;2022-08-05T10:02:02;5.72;;;3.28;;
32236;SDS011;18726;44.732;10.550;2022-08-05T10:05:11;5.38;;;4.38;;
32236;SDS011;18726;44.732;10.550;2022-08-05T10:08:47;9.55;;;4.38;;
32236;SDS011;18726;44.732;10.550;2022-08-05T10:11:51;9.85;;;3.85;;
32236;SDS011;18726;44.732;10.550;2022-08-05T10:15:08;3.50;;;3.20;;
32236;SDS011;18726;44.732;10.550;2022-08-05T10:18:19;4.53;;;3.00;;
32236;SDS011;18726;44.732;10.550;2022-08-05T10:22:07;10.13;;;3.38;;
32236;SDS011;18726;44.732;10.550;2022-08-05T10:25:17;5.55;;;3.53;;
32236;SDS011;18726;44.732;10.550;2022-08-05T10:28:21;4.68;;;3.00;;
32236;SDS011;18726;44.732;10.550;2022-08-05T10:31:25;6.43;;;3.70;;
32236;SDS011;18726;44.732;10.550;2022-08-05T10:34:29;4.35;;;3.20;;
32236;SDS011;18726;44.732;10.550;2022-08-05T10:37:34;4.28;;;3.25;;
32236;SDS011;18726;44.732;10.550;2022-08-05T10:47:10;5.05;;;3.15;;
32236;SDS011;18726;44.732;10.550;2022-08-05T10:50:21;3.63;;;3.20;;
32236;SDS011;18726;44.732;10.550;2022-08-05T10:53:38;5.85;;;2.80;;
32236;SDS011;18726;44.732;10.550;2022-08-05T10:56:44;4.47;;;3.03;;
32236;SDS011;18726;44.732;10.550;2022-08-05T10:59:47;3.38;;;2.92;;
32236;SDS011;18726;44.732;10.550;2022-08-05T11:06:03;7.13;;;3.13;;
32236;SDS011;18726;44.732;10.550;2022-08-05T11:15:47;6.55;;;2.60;;
32236;SDS011;18726;44.732;10.550;2022-08-05T11:25:41;4.78;;;2.42;;
32236;SDS011;18726;44.732;10.550;2022-08-05T11:28:49;6.25;;;2.95;;
32236;SDS011;18726;44.732;10.550;2022-08-05T11:32:21;5.80;;;2.88;;
32236;SDS011;18726;44.732;10.550;2022-08-05T11:35:51;3.35;;;2.47;;
32236;SDS011;18726;44.732;10.550;2022-08-05T11:38:55;4.22;;;2.40;;
32236;SDS011;18726;44.732;10.550;2022-08-05T11:42:02;2.70;;;2.40;;
32236;SDS011;18726;44.732;10.550;2022-08-05T11:45:10;2.58;;;2.38;;
32236;SDS011;18726;44.732;10.550;2022-08-05T11:48:14;2.83;;;2.10;;
32236;SDS011;18726;44.732;10.550;2022-08-05T11:51:19;4.75;;;2.72;;
32236;SDS011;18726;44.732;10.550;2022-08-05T11:54:27;2.88;;;2.53;;
32236;SDS011;18726;44.732;10.550;2022-08-05T11:57:44;3.80;;;2.05;;
32236;SDS011;18726;44.732;10.550;2022-08-05T12:00:59;3.42;;;2.45;;
32236;SDS011;18726;44.732;10.550;2022-08-05T12:04:04;2.47;;;2.05;;
32236;SDS011;18726;44.732;10.550;2022-08-05T12:07:10;4.80;;;2.00;;
32236;SDS011;18726;44.732;10.550;2022-08-05T12:10:20;6.13;;;2.45;;
32236;SDS011;18726;44.732;10.550;2022-08-05T12:13:28;2.90;;;2.70;;
32236;SDS011;18726;44.732;10.550;2022-08-05T12:16:36;2.40;;;2.13;;
32236;SDS011;18726;44.732;10.550;2022-08-05T12:19:56;2.20;;;2.00;;
32236;SDS011;18726;44.732;10.550;2022-08-05T12:23:09;2.63;;;2.38;;
32236;SDS011;18726;44.732;10.550;2022-08-05T12:26:13;5.13;;;2.95;;
32236;SDS011;18726;44.732;10.550;2022-08-05T12:29:19;3.38;;;2.15;;
32236;SDS011;18726;44.732;10.550;2022-08-05T12:32:23;2.60;;;2.40;;
32236;SDS011;18726;44.732;10.550;2022-08-05T12:35:27;3.75;;;3.40;;
32236;SDS011;18726;44.732;10.550;2022-08-05T12:38:41;4.97;;;3.13;;
32236;SDS011;18726;44.732;10.550;2022-08-05T12:41:46;3.28;;;2.92;;
32236;SDS011;18726;44.732;10.550;2022-08-05T12:44:51;4.30;;;2.78;;
32236;SDS011;18726;44.732;10.550;2022-08-05T12:47:56;3.58;;;2.72;;
32236;SDS011;18726;44.732;10.550;2022-08-05T12:51:10;2.60;;;2.17;;
32236;SDS011;18726;44.732;10.550;2022-08-05T12:54:23;5.32;;;3.10;;
32236;SDS011;18726;44.732;10.550;2022-08-05T12:57:34;5.07;;;2.70;;
32236;SDS011;18726;44.732;10.550;2022-08-05T13:00:42;3.10;;;2.80;;
32236;SDS011;18726;44.732;10.550;2022-08-05T13:03:48;2.70;;;2.50;;
32236;SDS011;18726;44.732;10.550;2022-08-05T13:06:51;5.30;;;3.58;;
32236;SDS011;18726;44.732;10.550;2022-08-05T13:09:56;7.75;;;3.63;;
32236;SDS011;18726;44.732;10.550;2022-08-05T13:13:03;4.97;;;3.47;;
32236;SDS011;18726;44.732;10.550;2022-08-05T13:16:12;4.50;;;3.80;;
32236;SDS011;18726;44.732;10.550;2022-08-05T13:19:16;4.95;;;2.80;;
32236;SDS011;18726;44.732;10.550;2022-08-05T13:22:23;10.43;;;3.33;;
32236;SDS011;18726;44.732;10.550;2022-08-05T13:25:27;4.03;;;2.97;;
32236;SDS011;18726;44.732;10.550;2022-08-05T13:28:31;5.82;;;3.22;;
32236;SDS011;18726;44.732;10.550;2022-08-05T13:31:34;4.20;;;3.50;;
32236;SDS011;18726;44.732;10.550;2022-08-05T13:34:38;4.97;;;3.22;;
32236;SDS011;18726;44.732;10.550;2022-08-05T13:37:42;4.50;;;3.33;;
32236;SDS011;18726;44.732;10.550;2022-08-05T13:40:46;6.28;;;3.95;;
32236;SDS011;18726;44.732;10.550;2022-08-05T13:43:50;7.45;;;3.25;;
32236;SDS011;18726;44.732;10.550;2022-08-05T13:46:54;3.40;;;3.05;;
32236;SDS011;18726;44.732;10.550;2022-08-05T13:49:58;6.60;;;3.47;;
32236;SDS011;18726;44.732;10.550;2022-08-05T13:53:02;4.03;;;3.38;;
32236;SDS011;18726;44.732;10.550;2022-08-05T13:56:06;3.83;;;3.45;;
32236;SDS011;18726;44.732;10.550;2022-08-05T13:59:38;4.05;;;3.22;;
32236;SDS011;18726;44.732;10.550;2022-08-05T14:02:42;5.00;;;3.58;;
32236;SDS011;18726;44.732;10.550;2022-08-05T14:05:46;4.20;;;3.75;;
32236;SDS011;18726;44.732;10.550;2022-08-05T14:08:50;3.20;;;2.90;;
32236;SDS011;18726;44.732;10.550;2022-08-05T14:11:53;3.72;;;3.42;;
32236;SDS011;18726;44.732;10.550;2022-08-05T14:14:57;3.03;;;2.83;;
32236;SDS011;18726;44.732;10.550;2022-08-05T14:18:01;3.53;;;3.13;;
32236;SDS011;18726;44.732;10.550;2022-08-05T14:21:11;6.68;;;3.58;;
32236;SDS011;18726;44.732;10.550;2022-08-05T14:24:15;3.92;;;3.05;;
32236;SDS011;18726;44.732;10.550;2022-08-05T14:27:18;4.50;;;3.42;;
32236;SDS011;18726;44.732;10.550;2022-08-05T14:30:44;3.80;;;3.08;;
32236;SDS011;18726;44.732;10.550;2022-08-05T14:33:46;2.90;;;2.70;;
32236;SDS011;18726;44.732;10.550;2022-08-05T14:36:50;8.55;;;3.42;;
32236;SDS011;18726;44.732;10.550;2022-08-05T14:39:54;3.83;;;3.22;;
32236;SDS011;18726;44.732;10.550;2022-08-05T14:42:57;8.02;;;3.97;;
32236;SDS011;18726;44.732;10.550;2022-08-05T14:46:01;4.30;;;3.55;;
32236;SDS011;18726;44.732;10.550;2022-08-05T14:49:05;5.15;;;3.05;;
32236;SDS011;18726;44.732;10.550;2022-08-05T14:52:09;3.00;;;2.80;;
32236;SDS011;18726;44.732;10.550;2022-08-05T14:55:13;5.03;;;3.35;;
32236;SDS011;18726;44.732;10.550;2022-08-05T14:58:16;3.75;;;3.22;;
32236;SDS011;18726;44.732;10.550;2022-08-05T15:01:20;4.13;;;3.30;;
32236;SDS011;18726;44.732;10.550;2022-08-05T15:04:23;4.70;;;2.90;;
32236;SDS011;18726;44.732;10.550;2022-08-05T15:07:31;6.15;;;3.35;;
32236;SDS011;18726;44.732;10.550;2022-08-05T15:10:34;5.72;;;3.05;;
32236;SDS011;18726;44.732;10.550;2022-08-05T15:13:38;3.88;;;3.53;;
32236;SDS011;18726;44.732;10.550;2022-08-05T15:16:43;3.53;;;3.20;;
32236;SDS011;18726;44.732;10.550;2022-08-05T15:19:54;4.18;;;2.97;;
32236;SDS011;18726;44.732;10.550;2022-08-05T15:23:05;3.50;;;3.20;;
32236;SDS011;18726;44.732;10.550;2022-08-05T15:26:11;4.32;;;2.97;;
32236;SDS011;18726;44.732;10.550;2022-08-05T15:29:15;3.85;;;3.53;;
32236;SDS011;18726;44.732;10.550;2022-08-05T15:32:24;6.13;;;3.72;;
32236;SDS011;18726;44.732;10.550;2022-08-05T15:35:28;3.00;;;2.80;;
32236;SDS011;18726;44.732;10.550;2022-08-05T15:38:36;9.45;;;3.65;;
32236;SDS011;18726;44.732;10.550;2022-08-05T15:41:40;4.55;;;3.70;;
32236;SDS011;18726;44.732;10.550;2022-08-05T15:44:44;10.13;;;3.65;;
32236;SDS011;18726;44.732;10.550;2022-08-05T15:47:47;9.57;;;3.80;;
32236;SDS011;18726;44.732;10.550;2022-08-05T15:50:51;5.00;;;3.47;;
32236;SDS011;18726;44.732;10.550;2022-08-05T15:53:54;5.93;;;3.45;;
32236;SDS011;18726;44.732;10.550;2022-08-05T15:57:09;3.60;;;3.30;;
32236;SDS011;18726;44.732;10.550;2022-08-05T16:00:15;3.30;;;3.00;;
32236;SDS011;18726;44.732;10.550;2022-08-05T16:03:23;3.58;;;3.28;;
32236;SDS011;18726;44.732;10.550;2022-08-05T16:06:29;4.97;;;3.80;;
32236;SDS011;18726;44.732;10.550;2022-08-05T16:09:33;3.20;;;2.90;;
32236;SDS011;18726;44.732;10.550;2022-08-05T16:12:36;3.75;;;3.45;;
32236;SDS011;18726;44.732;10.550;2022-08-05T16:15:40;6.70;;;3.42;;
32236;SDS011;18726;44.732;10.550;2022-08-05T16:18:45;5.50;;;3.50;;
32236;SDS011;18726;44.732;10.550;2022-08-05T16:21:49;3.35;;;3.03;;
32236;SDS011;18726;44.732;10.550;2022-08-05T16:24:53;3.58;;;3.28;;
32236;SDS011;18726;44.732;10.550;2022-08-05T16:28:04;3.70;;;3.30;;
32236;SDS011;18726;44.732;10.550;2022-08-05T16:31:12;7.45;;;2.92;;
32236;SDS011;18726;44.732;10.550;2022-08-05T16:34:17;3.33;;;3.03;;
32236;SDS011;18726;44.732;10.550;2022-08-05T16:37:28;3.55;;;3.25;;
32236;SDS011;18726;44.732;10.550;2022-08-05T16:40:33;4.88;;;3.33;;
32236;SDS011;18726;44.732;10.550;2022-08-05T16:43:37;3.25;;;2.92;;
32236;SDS011;18726;44.732;10.550;2022-08-05T16:46:41;5.05;;;3.13;;
32236;SDS011;18726;44.732;10.550;2022-08-05T16:49:46;4.65;;;3.85;;
32236;SDS011;18726;44.732;10.550;2022-08-05T16:52:50;11.38;;;4.13;;
32236;SDS011;18726;44.732;10.550;2022-08-05T16:55:54;3.08;;;2.78;;
32236;SDS011;18726;44.732;10.550;2022-08-05T16:58:59;3.47;;;3.17;;
32236;SDS011;18726;44.732;10.550;2022-08-05T17:02:04;4.13;;;2.83;;
32236;SDS011;18726;44.732;10.550;2022-08-05T17:05:08;5.18;;;3.53;;
32236;SDS011;18726;44.732;10.550;2022-08-05T17:08:12;3.30;;;2.95;;
32236;SDS011;18726;44.732;10.550;2022-08-05T17:11:16;3.92;;;3.22;;
32236;SDS011;18726;44.732;10.550;2022-08-05T17:14:20;3.72;;;3.42;;
32236;SDS011;18726;44.732;10.550;2022-08-05T17:17:24;4.47;;;3.47;;
32236;SDS011;18726;44.732;10.550;2022-08-05T17:23:40;4.57;;;3.28;;
32236;SDS011;18726;44.732;10.550;2022-08-05T17:26:44;6.43;;;3.70;;
32236;SDS011;18726;44.732;10.550;2022-08-05T17:29:49;4.35;;;3.33;;
32236;SDS011;18726;44.732;10.550;2022-08-05T17:33:05;5.45;;;3.60;;
32236;SDS011;18726;44.732;10.550;2022-08-05T17:36:10;6.65;;;4.32;;
32236;SDS011;18726;44.732;10.550;2022-08-05T17:39:14;4.28;;;3.65;;
32236;SDS011;18726;44.732;10.550;2022-08-05T17:42:21;5.43;;;4.43;;
32236;SDS011;18726;44.732;10.550;2022-08-05T17:45:25;4.15;;;3.75;;
32236;SDS011;18726;44.732;10.550;2022-08-05T17:48:32;4.22;;;3.80;;
32236;SDS011;18726;44.732;10.550;2022-08-05T17:51:36;4.53;;;3.85;;
32236;SDS011;18726;44.732;10.550;2022-08-05T17:54:40;3.60;;;3.25;;
32236;SDS011;18726;44.732;10.550;2022-08-05T17:58:16;4.38;;;3.97;;
32236;SDS011;18726;44.732;10.550;2022-08-05T18:01:26;3.60;;;3.30;;
32236;SDS011;18726;44.732;10.550;2022-08-05T18:04:31;5.45;;;4.10;;
32236;SDS011;18726;44.732;10.550;2022-08-05T18:07:39;4.72;;;3.20;;
32236;SDS011;18726;44.732;10.550;2022-08-05T18:10:50;5.07;;;3.90;;
32236;SDS011;18726;44.732;10.550;2022-08-05T18:16:59;4.13;;;3.80;;
32236;SDS011;18726;44.732;10.550;2022-08-05T18:20:06;4.20;;;3.70;;
32236;SDS011;18726;44.732;10.550;2022-08-05T18:23:11;5.40;;;3.78;;
32236;SDS011;18726;44.732;10.550;2022-08-05T18:26:15;7.63;;;6.93;;
32236;SDS011;18726;44.732;10.550;2022-08-05T18:33:11;6.35;;;5.15;;
32236;SDS011;18726;44.732;10.550;2022-08-05T18:36:19;5.65;;;4.85;;
32236;SDS011;18726;44.732;10.550;2022-08-05T18:40:16;5.55;;;4.15;;
32236;SDS011;18726;44.732;10.550;2022-08-05T18:43:20;5.10;;;4.68;;
32236;SDS011;18726;44.732;10.550;2022-08-05T18:46:27;5.80;;;5.07;;
32236;SDS011;18726;44.732;10.550;2022-08-05T18:49:32;8.52;;;4.90;;
32236;SDS011;18726;44.732;10.550;2022-08-05T18:52:54;6.88;;;4.82;;
32236;SDS011;18726;44.732;10.550;2022-08-05T18:55:58;5.68;;;5.18;;
32236;SDS011;18726;44.732;10.550;2022-08-05T18:59:03;8.48;;;7.65;;
32236;SDS011;18726;44.732;10.550;2022-08-05T19:02:07;7.13;;;5.50;;
32236;SDS011;18726;44.732;10.550;2022-08-05T19:05:11;8.90;;;6.35;;
32236;SDS011;18726;44.732;10.550;2022-08-05T19:08:16;7.78;;;7.07;;
32236;SDS011;18726;44.732;10.550;2022-08-05T19:11:26;8.75;;;6.82;;
32236;SDS011;18726;44.732;10.550;2022-08-05T19:37:33;11.35;;;6.25;;
32236;SDS011;18726;44.732;10.550;2022-08-05T19:41:04;9.30;;;5.30;;
32236;SDS011;18726;44.732;10.550;2022-08-05T19:44:26;15.98;;;6.20;;
32236;SDS011;18726;44.732;10.550;2022-08-05T19:56:24;5.72;;;4.97;;
32236;SDS011;18726;44.732;10.550;2022-08-05T20:14:51;11.27;;;8.73;;
32236;SDS011;18726;44.732;10.550;2022-08-05T20:22:58;6.82;;;5.75;;
32236;SDS011;18726;44.732;10.550;2022-08-05T20:26:15;6.75;;;4.85;;
32236;SDS011;18726;44.732;10.550;2022-08-05T20:29:19;8.80;;;6.40;;
32236;SDS011;18726;44.732;10.550;2022-08-05T20:32:23;5.82;;;5.25;;
32236;SDS011;18726;44.732;10.550;2022-08-05T20:35:27;6.15;;;5.15;;
32236;SDS011;18726;44.732;10.550;2022-08-05T20:38:39;6.78;;;6.07;;
32236;SDS011;18726;44.732;10.550;2022-08-05T20:41:44;5.85;;;5.35;;
32236;SDS011;18726;44.732;10.550;2022-08-05T20:44:49;5.55;;;5.03;;
32236;SDS011;18726;44.732;10.550;2022-08-05T20:57:14;8.93;;;4.93;;
32236;SDS011;18726;44.732;10.550;2022-08-05T21:00:21;4.25;;;3.85;;
32236;SDS011;18726;44.732;10.550;2022-08-05T21:03:25;5.03;;;4.47;;
32236;SDS011;18726;44.732;10.550;2022-08-05T21:06:28;10.48;;;4.55;;
32236;SDS011;18726;44.732;10.550;2022-08-05T21:13:31;6.20;;;5.65;;
32236;SDS011;18726;44.732;10.550;2022-08-05T21:20:18;4.93;;;4.13;;
32236;SDS011;18726;44.732;10.550;2022-08-05T21:47:36;11.88;;;6.28;;
32236;SDS011;18726;44.732;10.550;2022-08-05T21:54:51;13.43;;;7.90;;
32236;SDS011;18726;44.732;10.550;2022-08-05T21:57:55;8.55;;;6.28;;
32236;SDS011;18726;44.732;10.550;2022-08-05T22:01:02;4.53;;;4.20;;
32236;SDS011;18726;44.732;10.550;2022-08-05T22:32:59;5.47;;;4.68;;
32236;SDS011;18726;44.732;10.550;2022-08-05T22:44:25;5.50;;;4.63;;
32236;SDS011;18726;44.732;10.550;2022-08-05T22:52:01;7.15;;;4.68;;
32236;SDS011;18726;44.732;10.550;2022-08-05T23:07:52;7.10;;;5.38;;
32236;SDS011;18726;44.732;10.550;2022-08-05T23:30:11;6.72;;;5.85;;
32236;SDS011;18726;44.732;10.550;2022-08-05T23:33:16;6.75;;;6.13;;
32236;SDS011;18726;44.732;10.550;2022-08-05T23:36:20;6.80;;;6.15;;
32236;SDS011;18726;44.732;10.550;2022-08-05T23:39:30;6.40;;;5.80;;
32236;SDS011;18726;44.732;10.550;2022-08-05T23:46:32;7.85;;;7.15;;
32236;SDS011;18726;44.732;10.550;2022-08-05T23:50:16;8.05;;;7.30;;
32236;SDS011;18726;44.732;10.550;2022-08-05T23:53:36;6.60;;;6.00;;
